createdAt,value
2022-11-20T00:01:27.409Z,42.00
2022-11-20T00:03:55.985Z,40.70
2022-11-20T00:06:23.869Z,39.17
2022-11-20T00:08:51.785Z,44.87
2022-11-20T00:11:21.468Z,36.33
2022-11-20T00:13:50.502Z,40.07
2022-11-20T00:16:20.362Z,37.57
2022-11-20T00:18:47.524Z,41.10
2022-11-20T00:21:20.233Z,40.27
2022-11-20T00:23:49.525Z,38.73
2022-11-20T00:26:18.767Z,36.03
2022-11-20T00:28:50.271Z,35.60
2022-11-20T00:31:17.602Z,40.47
2022-11-20T00:33:45.547Z,35.73
2022-11-20T00:36:15.933Z,34.60
2022-11-20T00:38:43.404Z,36.97
2022-11-20T00:41:12.092Z,36.70
2022-11-20T00:43:38.984Z,30.23
2022-11-20T00:46:08.641Z,38.27
2022-11-20T00:48:35.723Z,32.67
2022-11-20T00:51:02.457Z,35.13
2022-11-20T00:53:29.350Z,35.33
2022-11-20T00:56:03.498Z,34.33
2022-11-20T00:58:32.591Z,38.57
2022-11-20T01:01:17.793Z,36.23
2022-11-20T01:03:46.988Z,38.93
2022-11-20T01:06:20.014Z,36.23
2022-11-20T01:08:47.510Z,36.73
2022-11-20T01:11:22.656Z,35.27
2022-11-20T01:13:51.425Z,34.83
2022-11-20T01:16:26.539Z,31.27
2022-11-20T01:18:55.343Z,35.67
2022-11-20T01:21:27.151Z,35.80
2022-11-20T01:23:54.636Z,31.17
2022-11-20T01:26:33.097Z,32.33
2022-11-20T01:29:00.973Z,35.70
2022-11-20T01:31:33.453Z,34.40
2022-11-20T01:34:03.056Z,32.00
2022-11-20T01:36:32.333Z,30.43
2022-11-20T01:39:01.532Z,31.77
2022-11-20T01:41:48.761Z,38.23
2022-11-20T01:44:18.102Z,33.37
2022-11-20T01:47:03.258Z,32.43
2022-11-20T01:49:41.573Z,31.53
2022-11-20T01:52:23.618Z,30.43
2022-11-20T01:54:59.928Z,34.00
2022-11-20T01:57:29.007Z,34.17
2022-11-20T02:00:01.068Z,34.87
2022-11-20T02:02:28.377Z,30.80
2022-11-20T02:05:01.901Z,35.37
2022-11-20T02:07:29.649Z,33.13
2022-11-20T02:09:58.944Z,30.97
2022-11-20T02:12:44.679Z,30.67
2022-11-20T02:15:11.589Z,31.47
2022-11-20T02:17:39.201Z,31.60
2022-11-20T02:20:07.186Z,29.50
2022-11-20T02:22:47.935Z,35.93
2022-11-20T02:25:16.208Z,33.10
2022-11-20T02:27:42.907Z,28.30
2022-11-20T02:30:11.965Z,33.60
2022-11-20T02:32:39.878Z,29.13
2022-11-20T02:35:31.078Z,30.03
2022-11-20T02:38:01.437Z,30.30
2022-11-20T02:40:28.268Z,27.77
2022-11-20T02:42:55.935Z,32.47
2022-11-20T02:45:23.840Z,30.60
2022-11-20T02:47:51.493Z,29.77
2022-11-20T02:50:18.812Z,31.60
2022-11-20T02:52:45.777Z,27.33
2022-11-20T02:55:12.897Z,31.17
2022-11-20T02:57:42.658Z,29.63
2022-11-20T03:00:10.152Z,28.83
2022-11-20T03:02:36.973Z,31.03
2022-11-20T03:05:04.581Z,28.73
2022-11-20T03:07:34.268Z,29.80
2022-11-20T03:10:01.073Z,32.30
2022-11-20T03:12:27.879Z,28.10
2022-11-20T03:14:54.596Z,28.27
2022-11-20T03:17:21.374Z,28.33
2022-11-20T03:19:48.095Z,26.60
2022-11-20T03:22:14.918Z,26.30
2022-11-20T03:24:41.642Z,33.20
2022-11-20T03:27:08.405Z,28.60
2022-11-20T03:29:36.604Z,26.50
2022-11-20T03:32:03.333Z,30.93
2022-11-20T03:34:30.124Z,27.00
2022-11-20T03:36:56.837Z,27.40
2022-11-20T03:39:24.019Z,26.63
2022-11-20T03:41:51.007Z,27.03
2022-11-20T03:44:17.655Z,30.50
2022-11-20T03:46:44.455Z,29.97
2022-11-20T03:49:11.283Z,35.67
2022-11-20T03:51:38.229Z,35.37
2022-11-20T03:54:08.337Z,26.47
2022-11-20T03:56:38.175Z,27.60
2022-11-20T03:59:05.775Z,25.90
2022-11-20T04:01:35.167Z,29.80
2022-11-20T04:04:02.132Z,30.87
2022-11-20T04:06:31.615Z,30.70
2022-11-20T04:08:59.629Z,34.23
2022-11-20T04:11:34.878Z,31.27
2022-11-20T04:14:03.746Z,31.40
2022-11-20T04:16:32.542Z,32.37
2022-11-20T04:19:01.418Z,31.33
2022-11-20T04:21:28.708Z,32.43
2022-11-20T04:23:56.237Z,29.77
2022-11-20T04:26:25.487Z,28.97
2022-11-20T04:28:52.794Z,27.30
2022-11-20T04:31:24.763Z,31.37
2022-11-20T04:33:52.405Z,29.07
2022-11-20T04:36:31.965Z,26.10
2022-11-20T04:39:01.314Z,28.50
2022-11-20T04:41:30.483Z,28.10
2022-11-20T04:44:02.808Z,32.07
2022-11-20T04:46:30.998Z,25.60
2022-11-20T04:48:57.804Z,27.40
2022-11-20T04:51:24.945Z,28.73
2022-11-20T04:53:51.712Z,30.27
2022-11-20T04:56:19.123Z,30.87
2022-11-20T04:58:45.951Z,30.53
2022-11-20T05:01:15.383Z,30.13
2022-11-20T05:03:43.489Z,32.10
2022-11-20T05:06:13.095Z,38.27
2022-11-20T05:08:39.875Z,34.33
2022-11-20T05:11:12.070Z,35.37
2022-11-20T05:13:39.174Z,35.57
2022-11-20T05:16:17.521Z,33.20
2022-11-20T05:18:44.632Z,33.57
2022-11-20T05:21:12.676Z,37.97
2022-11-20T05:23:39.895Z,34.23
2022-11-20T05:26:09.068Z,35.77
2022-11-20T05:28:35.833Z,35.07
2022-11-20T05:31:27.220Z,32.07
2022-11-20T05:33:55.397Z,29.30
2022-11-20T05:36:22.111Z,35.67
2022-11-20T05:38:51.182Z,27.90
2022-11-20T05:41:20.695Z,27.90
2022-11-20T05:43:48.838Z,30.13
2022-11-20T05:46:17.945Z,28.10
2022-11-20T05:48:45.699Z,32.53
2022-11-20T05:51:15.916Z,34.57
2022-11-20T05:53:48.137Z,36.63
2022-11-20T05:56:18.568Z,31.83
2022-11-20T05:58:45.872Z,32.47
2022-11-20T06:01:17.418Z,31.30
2022-11-20T06:03:47.027Z,29.33
2022-11-20T06:06:14.899Z,38.53
2022-11-20T06:08:41.966Z,30.80
2022-11-20T06:11:10.746Z,35.83
2022-11-20T06:13:41.888Z,35.13
2022-11-20T06:16:10.551Z,30.80
2022-11-20T06:18:37.537Z,32.30
2022-11-20T06:21:11.816Z,32.33
2022-11-20T06:23:39.393Z,33.87
2022-11-20T06:26:11.573Z,37.80
2022-11-20T06:28:39.143Z,35.83
2022-11-20T06:31:07.359Z,41.63
2022-11-20T06:33:34.176Z,42.53
2022-11-20T06:36:05.631Z,49.10
2022-11-20T06:38:34.367Z,46.20
2022-11-20T06:41:01.117Z,45.57
2022-11-20T06:43:30.551Z,40.33
2022-11-20T06:45:59.244Z,41.27
2022-11-20T06:48:28.542Z,45.33
2022-11-20T06:50:56.019Z,38.80
2022-11-20T06:53:23.560Z,39.00
2022-11-20T06:55:51.058Z,40.53
2022-11-20T06:58:19.087Z,39.37
2022-11-20T07:00:46.390Z,34.83
2022-11-20T07:03:13.578Z,43.40
2022-11-20T07:05:41.315Z,35.27
2022-11-20T07:08:08.581Z,41.23
2022-11-20T07:10:35.658Z,46.03
2022-11-20T07:13:02.541Z,36.97
2022-11-20T07:15:29.271Z,38.43
2022-11-20T07:17:57.199Z,38.83
2022-11-20T07:20:23.921Z,34.67
2022-11-20T07:22:55.809Z,41.33
2022-11-20T07:25:23.359Z,39.90
2022-11-20T07:27:50.147Z,38.63
2022-11-20T07:30:17.573Z,41.70
2022-11-20T07:32:47.871Z,40.83
2022-11-20T07:35:15.295Z,40.13
2022-11-20T07:37:43.037Z,46.20
2022-11-20T07:40:10.266Z,43.80
2022-11-20T07:42:36.958Z,44.83
2022-11-20T07:45:04.070Z,41.77
2022-11-20T07:47:36.517Z,41.67
2022-11-20T07:50:10.782Z,47.43
2022-11-20T07:52:37.576Z,37.93
2022-11-20T07:55:09.089Z,39.83
2022-11-20T07:57:36.281Z,38.30
2022-11-20T08:00:05.439Z,38.27
2022-11-20T08:02:32.316Z,45.57
2022-11-20T08:04:59.204Z,42.53
2022-11-20T08:07:26.218Z,40.53
2022-11-20T08:09:53.146Z,47.10
2022-11-20T08:12:40.702Z,44.40
2022-11-20T08:15:13.027Z,46.23
2022-11-20T08:17:52.493Z,46.67
2022-11-20T08:20:30.614Z,46.03
2022-11-20T08:23:02.167Z,48.23
2022-11-20T08:25:30.523Z,47.13
2022-11-20T08:28:18.327Z,43.67
2022-11-20T08:30:47.251Z,45.57
2022-11-20T08:33:14.080Z,42.37
2022-11-20T08:35:42.185Z,44.53
2022-11-20T08:38:10.101Z,44.53
2022-11-20T08:40:36.907Z,42.30
2022-11-20T08:43:03.732Z,47.30
2022-11-20T08:45:34.300Z,52.63
2022-11-20T08:48:02.674Z,47.83
2022-11-20T08:50:29.632Z,49.17
2022-11-20T08:52:56.387Z,50.27
2022-11-20T08:55:23.186Z,47.93
2022-11-20T08:57:51.223Z,45.33
2022-11-20T09:00:18.365Z,44.83
2022-11-20T09:02:45.211Z,47.23
2022-11-20T09:05:12.024Z,41.77
2022-11-20T09:07:38.901Z,46.17
2022-11-20T09:12:54.011Z,43.63
2022-11-20T09:15:21.085Z,37.53
2022-11-20T09:17:59.217Z,44.50
2022-11-20T09:20:27.018Z,46.73
2022-11-20T09:22:53.801Z,46.00
2022-11-20T09:25:20.669Z,45.57
2022-11-20T09:27:47.562Z,46.07
2022-11-20T09:30:19.860Z,44.90
2022-11-20T09:32:47.055Z,48.10
2022-11-20T09:35:15.003Z,46.77
2022-11-20T09:37:41.945Z,44.67
2022-11-20T09:40:31.674Z,46.63
2022-11-20T09:43:13.941Z,44.07
2022-11-20T09:45:56.528Z,48.90
2022-11-20T09:48:55.394Z,48.30
2022-11-20T09:51:41.017Z,43.40
2022-11-20T09:54:08.210Z,41.87
2022-11-20T09:56:41.593Z,45.30
2022-11-20T09:59:26.534Z,44.57
2022-11-20T10:01:55.655Z,42.27
2022-11-20T10:04:23.467Z,43.93
2022-11-20T10:10:00.266Z,40.90
2022-11-20T10:12:41.637Z,40.30
2022-11-20T10:15:27.949Z,41.40
2022-11-20T10:18:15.673Z,42.03
2022-11-20T10:21:00.706Z,48.10
2022-11-20T10:23:58.887Z,41.27
2022-11-20T10:27:00.710Z,44.37
2022-11-20T10:29:34.843Z,45.43
2022-11-20T10:32:14.646Z,41.87
2022-11-20T10:34:58.717Z,46.07
2022-11-20T10:37:30.703Z,47.43
2022-11-20T10:39:57.400Z,45.47
2022-11-20T10:42:38.900Z,43.20
2022-11-20T10:45:32.474Z,43.20
2022-11-20T10:48:32.197Z,43.80
2022-11-20T10:51:35.854Z,42.37
2022-11-20T10:54:26.994Z,39.97
2022-11-20T10:56:57.680Z,48.30
2022-11-20T10:59:57.550Z,39.57
2022-11-20T11:02:32.263Z,42.67
2022-11-20T11:05:03.997Z,42.80
2022-11-20T11:07:39.776Z,46.13
2022-11-20T11:10:18.853Z,45.40
2022-11-20T11:12:50.715Z,41.13
2022-11-20T11:15:37.576Z,38.90
2022-11-20T11:18:04.826Z,40.30
2022-11-20T11:20:33.359Z,39.90
2022-11-20T11:23:00.847Z,38.80
2022-11-20T11:25:36.628Z,38.43
2022-11-20T11:28:27.177Z,40.73
2022-11-20T11:30:54.503Z,38.30
2022-11-20T11:33:23.427Z,40.83
2022-11-20T11:35:59.246Z,45.20
2022-11-20T11:38:41.761Z,39.40
2022-11-20T11:41:14.119Z,41.13
2022-11-20T11:43:59.696Z,37.47
2022-11-20T11:46:29.676Z,41.30
2022-11-20T11:49:11.146Z,38.63
2022-11-20T11:51:59.268Z,40.87
2022-11-20T11:54:48.936Z,40.23
2022-11-20T11:57:24.806Z,41.03
2022-11-20T12:00:17.002Z,38.57
2022-11-20T12:02:46.522Z,38.77
2022-11-20T12:05:19.335Z,39.40
2022-11-20T12:08:12.734Z,36.47
2022-11-20T12:10:57.271Z,37.40
2022-11-20T12:13:37.736Z,37.27
2022-11-20T12:16:05.117Z,35.90
2022-11-20T12:18:32.853Z,35.07
2022-11-20T12:21:08.243Z,34.13
2022-11-20T12:23:43.570Z,33.07
2022-11-20T12:26:40.026Z,37.60
2022-11-20T12:29:28.669Z,35.67
2022-11-20T12:32:12.071Z,36.60
2022-11-20T12:35:11.416Z,35.53
2022-11-20T12:37:46.704Z,34.37
2022-11-20T12:40:33.310Z,32.00
2022-11-20T12:43:45.666Z,31.63
2022-11-20T12:46:27.862Z,30.63
2022-11-20T12:48:54.524Z,30.87
2022-11-20T12:51:38.304Z,29.87
2022-11-20T12:54:29.537Z,30.00
2022-11-20T12:57:26.718Z,29.70
2022-11-20T13:00:11.867Z,31.67
2022-11-20T13:03:08.943Z,28.00
2022-11-20T13:06:02.378Z,28.23
2022-11-20T13:08:35.287Z,27.47
2022-11-20T13:11:29.052Z,27.43
2022-11-20T13:14:17.971Z,29.20
2022-11-20T13:17:06.268Z,30.60
2022-11-20T13:19:33.976Z,31.10
2022-11-20T13:22:00.869Z,32.27
2022-11-20T13:24:31.166Z,32.43
2022-11-20T13:27:01.986Z,31.27
2022-11-20T13:29:29.716Z,34.23
2022-11-20T13:32:33.013Z,36.87
2022-11-20T13:35:03.259Z,32.43
2022-11-20T13:37:40.123Z,31.57
2022-11-20T13:40:23.895Z,38.23
2022-11-20T13:43:01.855Z,39.17
2022-11-20T13:45:31.757Z,37.50
2022-11-20T13:48:05.633Z,40.03
2022-11-20T13:50:38.823Z,41.80
2022-11-20T13:53:27.823Z,36.90
2022-11-20T13:56:08.615Z,38.17
2022-11-20T13:58:44.158Z,35.27
2022-11-20T14:01:15.148Z,35.27
2022-11-20T14:04:05.079Z,35.57
2022-11-20T14:06:35.627Z,35.50
2022-11-20T14:09:02.401Z,38.37
2022-11-20T14:11:30.943Z,32.43
2022-11-20T14:14:16.418Z,34.33
2022-11-20T14:16:45.338Z,34.53
2022-11-20T14:19:21.393Z,34.10
2022-11-20T14:21:50.022Z,32.50
2022-11-20T14:24:24.966Z,35.67
2022-11-20T14:26:53.247Z,34.20
2022-11-20T14:29:24.739Z,34.47
2022-11-20T14:31:56.687Z,32.77
2022-11-20T14:34:26.444Z,38.87
2022-11-20T14:37:17.104Z,38.37
2022-11-20T14:39:53.000Z,39.70
2022-11-20T14:42:28.324Z,38.43
2022-11-20T14:45:00.215Z,40.23
2022-11-20T14:47:31.881Z,38.57
2022-11-20T14:50:04.628Z,38.67
2022-11-20T14:52:35.804Z,48.80
2022-11-20T14:55:02.874Z,42.87
2022-11-20T14:57:35.196Z,45.07
2022-11-20T15:00:14.351Z,44.27
2022-11-20T15:02:46.156Z,44.37
2022-11-20T15:05:13.759Z,45.37
2022-11-20T15:07:46.669Z,46.27
2022-11-20T15:10:28.159Z,53.93
2022-11-20T15:13:01.032Z,51.37
2022-11-20T15:15:46.525Z,48.00
2022-11-20T15:18:20.587Z,51.23
2022-11-20T15:20:47.759Z,54.50
2022-11-20T15:23:16.984Z,51.37
2022-11-20T15:25:43.985Z,48.33
2022-11-20T15:28:22.803Z,47.30
2022-11-20T15:30:50.783Z,49.97
2022-11-20T15:33:18.705Z,49.37
2022-11-20T15:35:46.324Z,51.73
2022-11-20T15:38:13.252Z,49.17
2022-11-20T15:40:40.026Z,49.13
2022-11-20T15:43:12.880Z,58.90
2022-11-20T15:45:50.624Z,59.07
2022-11-20T15:48:23.977Z,53.17
2022-11-20T15:50:53.738Z,53.37
2022-11-20T15:53:20.624Z,58.03
2022-11-20T15:55:47.422Z,61.67
2022-11-20T15:58:14.270Z,56.50
2022-11-20T16:00:41.280Z,62.90
2022-11-20T16:03:11.769Z,59.40
2022-11-20T16:05:38.548Z,60.53
2022-11-20T16:08:11.099Z,61.60
2022-11-20T16:10:38.823Z,67.73
2022-11-20T16:13:24.994Z,68.10
2022-11-20T16:15:56.953Z,61.93
2022-11-20T16:18:23.794Z,70.13
2022-11-20T16:20:53.183Z,72.83
2022-11-20T16:23:21.271Z,69.50
2022-11-20T16:25:49.290Z,70.20
2022-11-20T16:28:19.174Z,67.60
2022-11-20T16:30:47.263Z,70.23
2022-11-20T16:33:16.449Z,70.43
2022-11-20T16:35:43.221Z,79.13
2022-11-20T16:38:10.539Z,70.87
2022-11-20T16:40:37.387Z,79.97
2022-11-20T16:43:10.643Z,71.77
2022-11-20T16:45:44.624Z,76.40
2022-11-20T16:48:17.094Z,76.57
2022-11-20T16:50:54.986Z,77.80
2022-11-20T16:53:22.860Z,85.27
2022-11-20T16:55:49.786Z,76.87
2022-11-20T16:58:20.040Z,81.33
2022-11-20T17:00:51.437Z,79.33
2022-11-20T17:03:18.963Z,74.40
2022-11-20T17:05:45.717Z,87.37
2022-11-20T17:08:12.380Z,87.87
2022-11-20T17:10:39.109Z,84.33
2022-11-20T17:13:05.814Z,93.00
2022-11-20T17:15:32.603Z,90.77
2022-11-20T17:17:59.672Z,87.60
2022-11-20T17:20:26.464Z,86.53
2022-11-20T17:22:53.351Z,88.83
2022-11-20T17:25:20.221Z,92.33
2022-11-20T17:27:47.014Z,89.70
2022-11-20T17:30:14.012Z,98.50
2022-11-20T17:32:45.719Z,99.43
2022-11-20T17:35:12.594Z,97.33
2022-11-20T17:37:40.777Z,109.23
2022-11-20T17:40:07.788Z,102.97
2022-11-20T17:42:36.892Z,96.43
2022-11-20T17:45:05.076Z,97.43
2022-11-20T17:47:31.827Z,109.87
2022-11-20T17:49:58.586Z,113.03
2022-11-20T17:52:25.300Z,109.00
2022-11-20T17:54:55.879Z,113.20
2022-11-20T17:57:42.588Z,102.03
2022-11-20T18:00:13.069Z,98.70
2022-11-20T18:02:40.120Z,101.93
2022-11-20T18:05:07.128Z,107.23
2022-11-20T18:07:38.524Z,167.23
2022-11-20T18:10:09.083Z,144.20
2022-11-20T18:12:35.869Z,137.23
2022-11-20T18:15:02.588Z,120.47
2022-11-20T18:17:29.368Z,104.50
2022-11-20T18:20:21.811Z,115.50
2022-11-20T18:22:42.849Z,103.17
2022-11-20T18:25:10.325Z,125.03
2022-11-20T18:27:37.138Z,116.73
2022-11-20T18:30:04.113Z,109.93
2022-11-20T18:32:31.179Z,107.47
2022-11-20T18:34:57.987Z,115.20
2022-11-20T18:37:24.729Z,107.73
2022-11-20T18:39:51.625Z,116.93
2022-11-20T18:42:37.049Z,131.30
2022-11-20T18:45:05.054Z,132.97
2022-11-20T18:47:36.134Z,121.90
2022-11-20T18:50:04.105Z,116.87
2022-11-20T18:52:34.346Z,118.60
2022-11-20T18:55:03.221Z,111.83
2022-11-20T18:57:30.351Z,121.40
2022-11-20T19:00:03.615Z,125.57
2022-11-20T19:02:40.908Z,121.93
2022-11-20T19:05:09.600Z,124.90
2022-11-20T19:07:36.351Z,126.03
2022-11-20T19:10:04.564Z,112.10
2022-11-20T19:12:31.449Z,140.40
2022-11-20T19:14:58.222Z,111.60
2022-11-20T19:17:24.964Z,121.17
2022-11-20T19:19:55.011Z,136.47
2022-11-20T19:22:22.185Z,129.40
2022-11-20T19:24:52.787Z,117.33
2022-11-20T19:27:19.602Z,114.67
2022-11-20T19:29:46.313Z,124.77
2022-11-20T19:32:12.987Z,127.03
2022-11-20T19:34:39.786Z,119.43
2022-11-20T19:37:06.658Z,139.97
2022-11-20T19:39:35.481Z,109.40
2022-11-20T19:42:02.670Z,113.13
2022-11-20T19:44:29.380Z,106.40
2022-11-20T19:46:58.700Z,123.13
2022-11-20T19:49:25.906Z,124.73
2022-11-20T19:51:56.368Z,130.47
2022-11-20T19:54:23.083Z,120.83
2022-11-20T19:56:50.577Z,117.50
2022-11-20T19:59:17.285Z,119.00
2022-11-20T20:01:44.319Z,117.27
2022-11-20T20:04:11.183Z,109.90
2022-11-20T20:06:39.923Z,112.87
2022-11-20T20:09:09.908Z,122.83
2022-11-20T20:11:37.657Z,116.83
2022-11-20T20:14:13.564Z,117.53
2022-11-20T20:16:40.765Z,122.67
2022-11-20T20:19:07.485Z,110.80
2022-11-20T20:21:36.261Z,110.73
2022-11-20T20:24:03.557Z,107.87
2022-11-20T20:26:31.971Z,108.67
2022-11-20T20:28:59.797Z,111.33
2022-11-20T20:31:28.637Z,109.13
2022-11-20T20:33:56.169Z,98.80
2022-11-20T20:36:24.180Z,110.10
2022-11-20T20:38:55.385Z,115.40
2022-11-20T20:41:24.691Z,102.77
2022-11-20T20:44:11.291Z,101.13
2022-11-20T20:46:38.220Z,102.13
2022-11-20T20:49:05.366Z,88.80
2022-11-20T20:51:32.029Z,100.67
2022-11-20T20:53:59.405Z,101.07
2022-11-20T20:56:26.547Z,91.67
2022-11-20T20:58:53.343Z,86.40
2022-11-20T21:01:21.288Z,92.10
2022-11-20T21:03:48.145Z,84.63
2022-11-20T21:06:14.869Z,93.23
2022-11-20T21:08:44.233Z,89.23
2022-11-20T21:11:16.279Z,107.60
2022-11-20T21:13:44.528Z,87.23
2022-11-20T21:16:12.523Z,94.03
2022-11-20T21:18:39.367Z,91.27
2022-11-20T21:21:26.650Z,88.03
2022-11-20T21:23:53.852Z,85.73
2022-11-20T21:26:21.537Z,92.77
2022-11-20T21:28:49.933Z,84.77
2022-11-20T21:31:22.298Z,100.70
2022-11-20T21:33:50.442Z,85.10
2022-11-20T21:36:22.476Z,92.30
2022-11-20T21:38:51.317Z,79.50
2022-11-20T21:41:18.076Z,93.00
2022-11-20T21:43:44.862Z,91.20
2022-11-20T21:46:14.175Z,88.23
2022-11-20T21:48:43.423Z,90.20
2022-11-20T21:51:15.373Z,85.47
2022-11-20T21:53:43.459Z,82.50
2022-11-20T21:56:12.286Z,79.97
2022-11-20T21:58:42.082Z,88.90
2022-11-20T22:01:12.850Z,99.17
2022-11-20T22:03:39.766Z,87.37
2022-11-20T22:06:08.253Z,111.53
2022-11-20T22:08:36.197Z,91.70
2022-11-20T22:11:08.638Z,89.27
2022-11-20T22:13:54.480Z,78.77
2022-11-20T22:16:21.735Z,108.03
2022-11-20T22:18:50.573Z,93.17
2022-11-20T22:21:19.592Z,100.03
2022-11-20T22:23:46.547Z,86.17
2022-11-20T22:26:18.974Z,97.83
2022-11-20T22:28:50.402Z,94.70
2022-11-20T22:31:18.383Z,83.07
2022-11-20T22:33:45.420Z,107.17
2022-11-20T22:36:15.019Z,102.40
2022-11-20T22:38:42.103Z,106.23
2022-11-20T22:41:10.321Z,105.63
2022-11-20T22:43:37.374Z,115.03
2022-11-20T22:46:05.540Z,109.27
2022-11-20T22:48:33.758Z,90.90
2022-11-20T22:51:08.947Z,103.20
2022-11-20T22:53:36.225Z,91.67
2022-11-20T22:56:04.289Z,78.53
2022-11-20T22:58:31.573Z,91.87
2022-11-20T23:01:17.589Z,108.23
2022-11-20T23:03:46.913Z,91.80
2022-11-20T23:06:14.811Z,84.50
2022-11-20T23:08:42.491Z,89.97
2022-11-20T23:11:17.587Z,83.87
2022-11-20T23:13:45.245Z,101.37
2022-11-20T23:16:15.232Z,87.37
2022-11-20T23:18:42.593Z,95.83
2022-11-20T23:21:17.674Z,83.23
2022-11-20T23:23:48.978Z,81.20
2022-11-20T23:26:16.917Z,71.50
2022-11-20T23:28:44.270Z,80.23
2022-11-20T23:31:12.318Z,93.17
2022-11-20T23:33:40.986Z,100.37
2022-11-20T23:36:08.387Z,149.17
2022-11-20T23:38:35.377Z,92.30
2022-11-20T23:41:02.403Z,103.63
2022-11-20T23:43:29.300Z,98.13
2022-11-20T23:45:58.185Z,101.13
2022-11-20T23:48:27.565Z,88.77
2022-11-20T23:50:54.770Z,93.13
2022-11-20T23:53:22.291Z,86.43
2022-11-20T23:55:54.439Z,86.73
2022-11-20T23:58:22.417Z,87.73
